Aireys Inlet, Australia

3:49 PM AEDT on March 26, 2017 (GMT +1100)
Aireys Inlet - Fairhaven | | Change Station

Elev 0 ft 38.46 °S, 144.11 °E | Updated 11 minutes ago

Partly Cloudy
Partly Cloudy
69.1 °F
Feels Like 69.1 °F
N
0.6
Wind Variable Wind from NE
Gusts 2.5 mph

Today
High -- | Low -- °F
--% Chance of Precip.
Yesterday
High -- | Low -- °F
Precip. -- in
Pressure 29.89 in
Visibility 6.2 miles
Clouds
Dew Point 64 °F
Humidity 83%
Rainfall 0.00 in
Snow Depth Not available.
7:31 AM 7:26 PM
Waning Crescent, 5% visible
METAR YMAV 260430Z AUTO 13007KT 9999 // NCD 24/18 Q1012 RF00.0/000.0
Pressure 29.89 in
Visibility 6.2 miles
Clouds
Dew Point 64 °F
Humidity 83%
Rainfall 0.00 in
Snow Depth Not available.
7:31 AM 7:26 PM
Waning Crescent, 5% visible
METAR YMAV 260430Z AUTO 13007KT 9999 // NCD 24/18 Q1012 RF00.0/000.0

Get Severe Weather Alerts

Thanks for signing up!

Be on the lookout for a verification email in your inbox.

You'll start receiving the daily forecast at 8 AM.

×

10-Day Weather Forecast

×

Almanac

Astronomy

Mar. 26, 2017 Rise Set
Actual Time
Civil Twilight
Nautical Twilight
Astronomical Twilight
Moon
Length of Visible Light
Length of Day
Tomorrow will be .
, % of the Moon is Illuminated

Today's Extremes

Country Highs Country Lows

Community

WunderPhotos

Upload Photos

1,962,540 photos uploaded!

WunderBlog® & News

Nearby

Air Quality

  Air Quality AQ Index Pollutant
Not available.

Snow Depth

Station Depth Elevation

Earthquake Activity

City Distance Mag. Time & Date
Minimum magnitude displayed is 2.5.

Earthquake Activity

City Distance Mag. Time & Date
Minimum magnitude displayed is 2.5.

Coastal Water Temperatures

Place Temperature

Stations

Nearby Weather Stations

Station Location Temp. Windchill Dew Point Humidity Wind Precip. Elev Updated Type